Time;durP1;ratioP1;P1;durP2;ratioP2;P2;SDS_P1;SDS_P2;PMS_P1;PMS_P2;Temp;Humidity;BMP_temperature;BMP_pressure;BME280_temperature;BME280_humidity;BME280_pressure;Samples;Min_cycle;Max_cycle;Signal;HPM_P1;HPM_P2
2023/09/10 00:00:41;;;;;;;9.70;7.97;;;;;;;22.50;59.88;97422.00;4916035;28;20217;-84
2023/09/10 00:03:07;;;;;;;8.98;8.07;;;;;;;22.39;60.23;97407.50;4915883;28;20174;-83
2023/09/10 00:05:32;;;;;;;9.80;8.25;;;;;;;22.14;60.54;97385.19;4920289;28;20188;-83
2023/09/10 00:08:00;;;;;;;8.63;7.82;;;;;;;22.38;60.18;97422.66;4904935;28;20324;-84
2023/09/10 00:10:26;;;;;;;8.65;7.88;;;;;;;22.43;60.13;97421.69;4906718;28;20030;-84
2023/09/10 00:12:51;;;;;;;8.88;8.00;;;;;;;22.29;60.37;97415.81;4905550;28;20174;-83
2023/09/10 00:15:16;;;;;;;9.07;8.27;;;;;;;22.30;60.05;97409.41;4928834;28;20174;-83
2023/09/10 00:17:42;;;;;;;8.73;7.85;;;;;;;22.22;59.76;97402.97;4917205;28;20652;-83
2023/09/10 00:20:09;;;;;;;7.75;7.15;;;;;;;22.20;60.62;97416.56;4923812;28;20267;-83
2023/09/10 00:22:34;;;;;;;9.10;8.07;;;;;;;22.09;60.87;97412.69;4936883;28;20281;-83
2023/09/10 00:25:00;;;;;;;9.25;8.43;;;;;;;22.17;60.35;97421.72;4914603;28;20130;-83
2023/09/10 00:27:25;;;;;;;8.85;8.05;;;;;;;22.14;60.25;97417.03;4918050;28;20098;-83
2023/09/10 00:29:51;;;;;;;9.57;8.48;;;;;;;22.05;60.27;97404.56;4917164;28;20247;-84
2023/09/10 00:32:16;;;;;;;9.15;8.35;;;;;;;22.03;60.18;97405.97;4931316;28;20260;-83
2023/09/10 00:34:41;;;;;;;8.63;7.93;;;;;;;22.03;60.31;97408.63;4916765;28;20383;-83
2023/09/10 00:37:07;;;;;;;8.65;7.85;;;;;;;22.02;60.11;97415.00;4930529;28;20153;-84
2023/09/10 00:39:32;;;;;;;8.55;7.75;;;;;;;22.03;60.43;97409.41;4910336;28;20205;-83
2023/09/10 00:41:58;;;;;;;9.60;8.70;;;;;;;21.90;60.21;97397.09;4911850;28;20166;-83
2023/09/10 00:44:24;;;;;;;8.57;7.80;;;;;;;21.91;60.60;97411.13;4929573;28;20268;-83
2023/09/10 00:46:53;;;;;;;9.30;8.35;;;;;;;21.97;60.61;97409.88;4922046;28;20241;-83
2023/09/10 00:49:19;;;;;;;9.60;8.77;;;;;;;21.83;60.62;97402.88;4912414;28;20288;-83
2023/09/10 00:51:45;;;;;;;9.15;8.32;;;;;;;21.87;60.76;97414.41;4904846;28;20199;-83
2023/09/10 00:54:10;;;;;;;8.82;8.02;;;;;;;21.78;60.91;97400.38;4903560;28;20153;-83
2023/09/10 00:56:36;;;;;;;10.15;9.15;;;;;;;21.84;60.77;97415.00;4921137;28;20208;-83
2023/09/10 00:59:01;;;;;;;9.27;8.32;;;;;;;21.72;61.03;97398.97;4918384;28;20148;-83
2023/09/10 01:01:27;;;;;;;9.52;8.65;;;;;;;21.70;61.16;97393.19;4900023;28;20203;-84
2023/09/10 01:03:52;;;;;;;9.20;8.40;;;;;;;21.81;61.39;97409.56;4913132;28;20182;-83
2023/09/10 01:06:18;;;;;;;9.57;8.77;;;;;;;21.79;61.59;97417.81;4916165;28;20677;-84
2023/09/10 01:08:43;;;;;;;9.35;8.45;;;;;;;21.67;61.24;97410.47;4902204;28;20203;-83
2023/09/10 01:11:24;;;;;;;9.85;8.95;;;;;;;21.77;61.54;97408.63;4899108;28;20080;-83
2023/09/10 01:14:25;;;;;;;9.98;8.73;;;;;;;21.76;61.45;97418.44;4901572;28;20284;-83
2023/09/10 01:17:02;;;;;;;9.75;8.85;;;;;;;21.87;61.46;97419.69;4869371;28;20201;-83
2023/09/10 01:19:36;;;;;;;9.18;8.27;;;;;;;21.88;61.16;97410.66;4839304;29;20157;-84
2023/09/10 01:22:20;;;;;;;9.13;8.27;;;;;;;21.94;61.07;97413.16;4871496;29;20515;-84
2023/09/10 01:24:50;;;;;;;9.48;8.57;;;;;;;21.80;61.49;97403.50;4853513;29;20328;-83
2023/09/10 01:27:16;;;;;;;9.93;8.95;;;;;;;21.75;61.90;97413.47;4852026;29;20304;-83
2023/09/10 01:29:42;;;;;;;9.68;8.77;;;;;;;21.66;61.83;97398.34;4860255;29;20297;-84
2023/09/10 01:32:17;;;;;;;9.43;8.50;;;;;;;21.78;61.88;97408.31;4854900;29;20183;-84
2023/09/10 01:34:48;;;;;;;;;;;;;;;21.88;61.12;97400.06;4844788;29;20643;-84
2023/09/10 01:37:35;;;;;;;8.50;7.70;;;;;;;21.78;60.82;97383.66;4869281;29;20095;-84
2023/09/10 01:40:03;;;;;;;10.23;8.82;;;;;;;21.67;61.34;97393.81;4837040;29;20356;-84
2023/09/10 01:42:28;;;;;;;9.88;8.98;;;;;;;21.62;61.73;97396.63;4839724;29;20267;-83
2023/09/10 01:44:54;;;;;;;8.75;7.95;;;;;;;21.69;61.49;97402.22;4857566;29;20195;-83
2023/09/10 01:47:19;;;;;;;10.35;8.98;;;;;;;21.64;61.73;97394.44;4870231;29;20162;-83
2023/09/10 01:49:44;;;;;;;9.45;8.65;;;;;;;21.56;61.66;97397.84;4844132;28;20309;-84
2023/09/10 01:52:10;;;;;;;8.18;7.38;;;;;;;21.41;61.20;97378.63;4903288;28;20205;-83
2023/09/10 01:54:35;;;;;;;8.95;8.15;;;;;;;21.54;61.11;97394.72;4916953;28;20308;-83
2023/09/10 01:57:00;;;;;;;8.35;7.60;;;;;;;21.40;60.89;97377.06;4937919;28;20922;-83
2023/09/10 01:59:26;;;;;;;8.65;7.85;;;;;;;21.35;61.13;97365.84;4907978;28;20571;-83
2023/09/10 02:01:51;;;;;;;9.30;8.38;;;;;;;21.39;60.88;97374.75;4915288;28;20273;-83
2023/09/10 02:04:17;;;;;;;9.43;8.27;;;;;;;21.53;61.53;97390.53;4924074;28;20177;-84
2023/09/10 02:06:42;;;;;;;10.05;9.07;;;;;;;21.53;61.38;97387.88;4917958;28;20612;-84
2023/09/10 02:09:08;;;;;;;9.18;8.27;;;;;;;21.39;61.90;97366.81;4934023;28;20224;-83
2023/09/10 02:11:33;;;;;;;9.13;8.23;;;;;;;21.51;61.88;97388.97;4921308;28;20618;-83
2023/09/10 02:13:58;;;;;;;8.80;7.72;;;;;;;21.54;61.94;97389.44;4921308;28;20295;-83
2023/09/10 02:16:24;;;;;;;8.73;7.93;;;;;;;21.50;61.60;97387.41;4938880;28;20733;-83
2023/09/10 02:18:49;;;;;;;9.10;8.20;;;;;;;21.39;61.35;97372.88;4922473;28;20278;-84
2023/09/10 02:21:14;;;;;;;9.10;8.30;;;;;;;21.43;61.37;97387.06;4933725;28;20204;-83
2023/09/10 02:23:43;;;;;;;8.52;7.72;;;;;;;21.25;61.14;97369.56;4908991;28;20268;-83
2023/09/10 02:26:09;;;;;;;8.90;8.10;;;;;;;21.32;61.13;97383.16;4922875;28;20099;-83
2023/09/10 02:28:34;;;;;;;8.60;7.88;;;;;;;21.28;61.20;97387.50;4916568;28;20189;-83
2023/09/10 02:31:05;;;;;;;8.07;7.28;;;;;;;21.32;61.12;97391.88;4899776;28;20046;-83
2023/09/10 02:33:30;;;;;;;9.23;8.32;;;;;;;21.21;60.94;97382.66;4919133;28;20265;-83
2023/09/10 02:35:56;;;;;;;9.18;8.38;;;;;;;21.04;61.16;97364.06;4903848;28;20196;-83
2023/09/10 02:38:21;;;;;;;9.45;8.48;;;;;;;21.07;60.99;97360.81;4933501;28;20490;-83
2023/09/10 02:40:47;;;;;;;8.68;7.78;;;;;;;20.96;61.65;97357.69;4924072;28;20230;-83
2023/09/10 02:43:12;;;;;;;8.63;7.78;;;;;;;21.13;61.14;97386.84;4935303;28;20620;-83
2023/09/10 02:45:37;;;;;;;9.00;8.20;;;;;;;21.06;61.31;97375.94;4920500;28;20309;-83
2023/09/10 02:48:03;;;;;;;9.85;8.80;;;;;;;21.01;61.36;97383.22;4937794;28;20107;-84
2023/09/10 02:50:28;;;;;;;9.07;8.18;;;;;;;21.06;61.31;97386.53;4905415;28;20255;-83
2023/09/10 02:52:54;;;;;;;9.23;8.38;;;;;;;21.02;61.33;97380.28;4913157;28;20049;-83
2023/09/10 02:55:22;;;;;;;8.23;7.40;;;;;;;20.93;61.32;97382.88;4936152;28;20695;-83
2023/09/10 02:57:47;;;;;;;8.10;7.32;;;;;;;20.93;61.23;97382.88;4936159;28;20200;-83
2023/09/10 03:00:13;;;;;;;9.10;8.30;;;;;;;20.95;61.15;97386.00;4910537;28;20110;-83
2023/09/10 03:02:38;;;;;;;9.00;8.23;;;;;;;20.99;61.03;97386.19;4922401;28;20762;-83
2023/09/10 03:05:04;;;;;;;8.98;8.07;;;;;;;21.00;61.26;97382.44;4923276;28;20224;-84
2023/09/10 03:07:29;;;;;;;9.20;7.28;;;;;;;21.01;61.29;97389.31;4941032;28;20177;-84
2023/09/10 03:09:55;;;;;;;8.02;7.22;;;;;;;20.99;60.81;97391.50;4926501;28;20197;-83
2023/09/10 03:12:23;;;;;;;9.10;8.20;;;;;;;21.02;61.39;97393.50;4924644;28;20232;-84
2023/09/10 03:14:49;;;;;;;8.23;7.40;;;;;;;20.87;61.71;97375.38;4938940;28;20339;-83
2023/09/10 03:17:16;;;;;;;9.10;8.30;;;;;;;20.93;61.77;97398.00;4903897;28;20230;-83
2023/09/10 03:19:41;;;;;;;8.98;8.18;;;;;;;20.83;61.57;97382.41;4935848;28;20273;-83
2023/09/10 03:22:06;;;;;;;9.57;8.05;;;;;;;20.83;61.13;97385.03;4919620;28;20842;-83
2023/09/10 03:24:36;;;;;;;9.20;8.30;;;;;;;20.96;61.29;97392.09;4939007;28;20170;-83
2023/09/10 03:27:04;;;;;;;8.55;7.80;;;;;;;20.88;61.54;97379.63;4937225;28;20198;-83
2023/09/10 03:29:32;;;;;;;9.23;8.32;;;;;;;20.81;61.94;97374.00;4931292;28;20186;-83
2023/09/10 03:31:58;;;;;;;9.65;8.75;;;;;;;20.84;62.12;97383.97;4934616;28;20357;-83
2023/09/10 03:34:23;;;;;;;8.20;7.50;;;;;;;20.81;62.03;97379.28;4936567;28;20620;-83
2023/09/10 03:36:48;;;;;;;10.23;8.60;;;;;;;20.89;62.52;97397.06;4918520;28;20220;-83
2023/09/10 03:39:14;;;;;;;9.30;8.15;;;;;;;20.87;62.02;97400.00;4939661;28;20271;-83
2023/09/10 03:41:39;;;;;;;9.70;8.70;;;;;;;20.87;62.48;97393.91;4910973;28;20599;-84
2023/09/10 03:44:05;;;;;;;9.80;8.90;;;;;;;20.86;62.96;97395.03;4921905;28;20647;-83
2023/09/10 03:46:30;;;;;;;9.75;8.85;;;;;;;20.86;63.18;97393.16;4920022;28;20217;-83
2023/09/10 03:48:55;;;;;;;9.25;8.45;;;;;;;20.86;62.97;97389.72;4890179;28;20286;-84
2023/09/10 03:51:21;;;;;;;8.57;7.82;;;;;;;20.88;62.44;97392.84;4906668;28;20114;-83
2023/09/10 03:53:46;;;;;;;8.63;7.82;;;;;;;20.84;62.76;97378.66;4912849;28;20295;-83
2023/09/10 03:56:11;;;;;;;8.90;8.00;;;;;;;20.79;61.98;97379.59;4929395;28;20244;-83
2023/09/10 03:58:37;;;;;;;8.77;7.97;;;;;;;20.81;62.49;97382.69;4929209;28;20279;-83
2023/09/10 04:01:02;;;;;;;8.32;7.53;;;;;;;20.70;62.78;97368.16;4932341;28;20592;-83
2023/09/10 04:03:27;;;;;;;9.98;8.90;;;;;;;20.84;62.30;97397.19;4896236;28;20241;-84
2023/09/10 04:05:53;;;;;;;9.27;8.38;;;;;;;20.87;63.11;97389.44;4933678;28;20236;-83
2023/09/10 04:08:18;;;;;;;9.90;8.98;;;;;;;20.69;62.75;97366.63;4898210;28;20258;-82
2023/09/10 04:10:44;;;;;;;9.00;8.20;;;;;;;20.81;62.70;97384.56;4920859;28;20152;-83
2023/09/10 04:13:09;;;;;;;9.40;8.48;;;;;;;20.84;62.85;97395.31;4917952;28;20197;-83
2023/09/10 04:15:35;;;;;;;9.88;8.98;;;;;;;20.83;62.67;97392.97;4905441;28;20303;-83
2023/09/10 04:18:03;;;;;;;9.25;8.35;;;;;;;20.79;62.90;97384.09;4920164;28;20207;-83
2023/09/10 04:20:29;;;;;;;9.40;8.50;;;;;;;20.71;63.12;97389.03;4934680;28;20239;-83
2023/09/10 04:22:54;;;;;;;9.43;8.57;;;;;;;20.75;63.02;97397.94;4908317;28;20609;-83
2023/09/10 04:25:19;;;;;;;9.70;8.80;;;;;;;20.74;63.04;97395.59;4902804;28;20806;-83
2023/09/10 04:27:45;;;;;;;8.88;8.07;;;;;;;20.62;63.10;97385.56;4910151;28;20264;-83
2023/09/10 04:30:10;;;;;;;9.02;8.13;;;;;;;20.63;62.60;97389.78;4910993;28;20208;-83
2023/09/10 04:32:36;;;;;;;8.57;7.57;;;;;;;20.67;62.20;97401.31;4910962;28;20306;-82
2023/09/10 04:35:04;;;;;;;8.40;7.40;;;;;;;20.61;62.41;97407.78;4900726;28;20185;-83
2023/09/10 04:37:30;;;;;;;8.70;7.70;;;;;;;20.49;62.31;97394.34;4896439;28;20216;-82
2023/09/10 04:39:55;;;;;;;9.27;8.43;;;;;;;20.55;62.51;97401.09;4914409;28;20174;-83
2023/09/10 04:42:21;;;;;;;9.38;8.48;;;;;;;20.50;62.51;97395.91;4900081;28;20591;-83
2023/09/10 04:44:47;;;;;;;9.45;8.55;;;;;;;20.53;62.90;97404.03;4896489;28;20280;-83
2023/09/10 04:47:13;;;;;;;9.23;8.32;;;;;;;20.48;62.81;97395.44;4908871;28;20208;-83
2023/09/10 04:49:38;;;;;;;9.48;8.57;;;;;;;20.45;63.23;97398.69;4899871;28;20672;-83
2023/09/10 04:52:04;;;;;;;9.07;7.95;;;;;;;20.51;62.85;97406.19;4901331;28;20205;-83
2023/09/10 04:54:30;;;;;;;10.38;9.38;;;;;;;20.44;63.21;97399.75;4918721;28;20671;-83
2023/09/10 04:56:55;;;;;;;9.32;8.35;;;;;;;20.38;63.30;97389.31;4913521;28;20701;-83
2023/09/10 04:59:21;;;;;;;9.77;8.77;;;;;;;20.52;63.32;97406.97;4916186;28;20700;-83
2023/09/10 05:01:47;;;;;;;9.73;8.82;;;;;;;20.44;62.84;97399.75;4901342;28;20232;-83
2023/09/10 05:04:12;;;;;;;9.45;8.55;;;;;;;20.48;62.72;97401.50;4893577;28;20669;-83
2023/09/10 05:06:38;;;;;;;9.18;8.38;;;;;;;20.42;62.74;97402.72;4894957;28;20373;-83
2023/09/10 05:09:03;;;;;;;9.95;8.95;;;;;;;20.46;62.42;97414.25;4912873;28;20396;-83
2023/09/10 05:11:28;;;;;;;9.07;8.18;;;;;;;20.34;63.05;97398.16;4914418;28;20395;-82
2023/09/10 05:13:54;;;;;;;8.90;8.10;;;;;;;20.43;62.38;97411.44;4902895;28;20099;-83
2023/09/10 05:16:19;;;;;;;8.82;8.02;;;;;;;20.47;62.51;97417.69;4908543;28;20301;-83
2023/09/10 05:18:45;;;;;;;9.00;8.18;;;;;;;20.43;62.27;97422.78;4899136;28;20737;-83
2023/09/10 05:21:10;;;;;;;9.35;8.45;;;;;;;20.42;62.11;97426.50;4899278;28;20174;-83
2023/09/10 05:23:35;;;;;;;9.73;8.52;;;;;;;20.51;62.54;97429.22;4916253;28;20769;-83
2023/09/10 05:26:02;;;;;;;10.20;9.20;;;;;;;20.55;63.35;97438.13;4902287;28;20174;-83
2023/09/10 05:28:29;;;;;;;10.20;9.20;;;;;;;20.60;63.49;97430.06;4901512;28;20694;-83
2023/09/10 05:30:55;;;;;;;8.60;7.78;;;;;;;20.55;63.09;97428.31;4900904;28;20283;-83
2023/09/10 05:33:20;;;;;;;9.80;8.80;;;;;;;20.54;63.61;97423.31;4923245;28;20592;-83
2023/09/10 05:35:58;;;;;;;9.43;8.52;;;;;;;20.76;63.63;97433.88;4893993;28;20335;-83
2023/09/10 05:38:24;;;;;;;10.13;9.18;;;;;;;20.70;63.75;97436.97;4919439;28;20200;-83
2023/09/10 05:40:50;;;;;;;10.85;9.85;;;;;;;20.63;63.90;97418.91;4920125;28;20216;-83
2023/09/10 05:43:16;;;;;;;10.82;9.73;;;;;;;20.73;63.94;97429.22;4915818;28;20659;-83
2023/09/10 05:45:41;;;;;;;10.43;9.32;;;;;;;20.76;64.05;97431.25;4909136;28;20377;-83
2023/09/10 05:48:06;;;;;;;9.60;8.70;;;;;;;20.80;63.93;97431.41;4900959;28;20331;-83
2023/09/10 05:50:32;;;;;;;10.13;9.13;;;;;;;20.81;63.79;97437.50;4899639;28;20265;-83
2023/09/10 05:52:59;;;;;;;9.70;8.80;;;;;;;20.84;64.21;97427.09;4895215;28;20176;-83
2023/09/10 05:55:25;;;;;;;10.52;9.52;;;;;;;20.96;64.18;97445.03;4901781;28;20361;-83
2023/09/10 05:57:53;;;;;;;10.25;9.32;;;;;;;21.01;64.38;97431.66;4900643;28;20766;-83
2023/09/10 06:00:20;;;;;;;8.60;7.80;;;;;;;21.10;64.24;97443.06;4894179;28;20107;-82
2023/09/10 06:02:46;;;;;;;9.10;8.20;;;;;;;21.21;64.11;97448.09;4919073;28;20778;-83
2023/09/10 06:05:12;;;;;;;10.10;9.05;;;;;;;21.20;64.17;97442.00;4905261;28;20626;-83
2023/09/10 06:07:37;;;;;;;9.68;8.82;;;;;;;21.35;63.96;97455.91;4917793;28;20095;-83
2023/09/10 06:10:08;;;;;;;8.90;8.07;;;;;;;21.39;64.20;97452.34;4930839;28;20260;-83
2023/09/10 06:12:34;;;;;;;9.18;8.38;;;;;;;21.51;64.03;97451.78;4920430;28;20268;-83
2023/09/10 06:15:00;;;;;;;9.60;8.80;;;;;;;21.63;63.88;97453.84;4931024;28;20489;-83
2023/09/10 06:17:25;;;;;;;9.07;8.27;;;;;;;21.74;63.45;97463.03;4930730;28;20217;-83
2023/09/10 06:19:51;;;;;;;9.30;8.50;;;;;;;21.84;63.67;97462.72;4913574;28;20088;-82
2023/09/10 06:22:16;;;;;;;9.43;8.52;;;;;;;21.90;63.54;97458.06;4929958;28;20266;-83
2023/09/10 06:24:42;;;;;;;9.15;8.35;;;;;;;21.99;63.11;97452.78;4898944;28;20095;-83
2023/09/10 06:27:07;;;;;;;9.73;8.90;;;;;;;22.17;63.40;97459.63;4936752;28;20658;-83
2023/09/10 06:29:33;;;;;;;8.82;8.05;;;;;;;22.25;62.97;97455.41;4937623;28;20331;-83
2023/09/10 06:31:58;;;;;;;9.75;8.75;;;;;;;22.39;62.75;97463.22;4917585;28;20290;-83
2023/09/10 06:34:23;;;;;;;8.27;7.53;;;;;;;22.33;62.11;97441.41;4936106;28;20170;-83
2023/09/10 06:36:49;;;;;;;10.07;9.18;;;;;;;22.61;61.96;97467.56;4902914;28;20247;-83
2023/09/10 06:39:14;;;;;;;9.35;8.32;;;;;;;22.65;61.38;97457.84;4918192;28;20114;-83
2023/09/10 06:41:40;;;;;;;9.38;8.52;;;;;;;22.66;61.04;97456.00;4921622;28;20726;-83
2023/09/10 06:44:05;;;;;;;9.30;8.50;;;;;;;22.83;60.70;97469.22;4934347;28;20287;-83
2023/09/10 06:46:31;;;;;;;8.55;7.85;;;;;;;22.94;60.79;97475.72;4906639;28;20164;-83
2023/09/10 06:48:58;;;;;;;9.38;8.48;;;;;;;23.09;60.61;97468.38;4890625;28;20788;-83
2023/09/10 06:51:24;;;;;;;8.80;8.00;;;;;;;23.03;60.47;97449.16;4930504;28;20186;-83
2023/09/10 06:53:49;;;;;;;10.02;9.13;;;;;;;23.26;60.51;97465.66;4928685;28;20281;-82
2023/09/10 06:56:15;;;;;;;9.50;8.25;;;;;;;23.37;59.80;97474.81;4916247;28;20346;-83
2023/09/10 06:58:40;;;;;;;10.10;8.80;;;;;;;23.46;59.92;97474.78;4912604;28;20666;-83
2023/09/10 07:01:07;;;;;;;9.57;8.77;;;;;;;23.59;59.60;97478.28;4895969;28;20373;-83
2023/09/10 07:03:33;;;;;;;9.43;8.63;;;;;;;23.68;59.48;97470.25;4920209;28;20247;-83
2023/09/10 07:05:58;;;;;;;9.05;8.20;;;;;;;23.88;58.79;97477.50;4913434;28;20189;-83
2023/09/10 07:08:24;;;;;;;9.10;8.32;;;;;;;23.96;58.64;97467.91;4932698;28;20674;-83
2023/09/10 07:10:49;;;;;;;8.50;7.80;;;;;;;24.22;58.13;97477.56;4919964;28;20208;-83
2023/09/10 07:13:16;;;;;;;9.02;8.23;;;;;;;24.47;58.54;97479.22;4889717;28;20204;-83
2023/09/10 07:15:41;;;;;;;8.70;7.88;;;;;;;24.66;58.30;97481.41;4907349;28;20646;-83
2023/09/10 07:18:07;;;;;;;9.20;8.40;;;;;;;24.94;57.99;97480.03;4894964;28;20166;-83
2023/09/10 07:20:33;;;;;;;8.98;8.27;;;;;;;25.17;57.36;97478.50;4911594;28;20724;-83
2023/09/10 07:22:58;;;;;;;9.32;8.48;;;;;;;25.42;57.22;97473.19;4896749;28;20218;-84
2023/09/10 07:25:23;;;;;;;10.00;9.10;;;;;;;25.73;57.07;97475.25;4925987;28;20170;-84
2023/09/10 07:27:49;;;;;;;9.73;8.98;;;;;;;26.00;56.42;97480.22;4922713;28;20296;-84
2023/09/10 07:30:14;;;;;;;8.70;8.00;;;;;;;26.26;56.09;97480.56;4903315;28;20212;-84
2023/09/10 07:32:41;;;;;;;9.27;8.48;;;;;;;26.49;55.38;97474.69;4893012;28;20280;-83
2023/09/10 07:35:07;;;;;;;9.23;8.32;;;;;;;26.57;54.69;97471.09;4896338;28;20245;-84
2023/09/10 07:37:33;;;;;;;8.85;8.15;;;;;;;26.83;54.64;97483.22;4914370;28;20209;-83
2023/09/10 07:39:58;;;;;;;8.82;8.10;;;;;;;26.97;54.16;97472.84;4898220;28;20663;-83
2023/09/10 07:42:24;;;;;;;8.65;7.95;;;;;;;27.13;52.24;97480.09;4915954;28;20084;-83
2023/09/10 07:44:50;;;;;;;8.73;7.93;;;;;;;27.27;50.79;97475.09;4896786;28;20305;-83
2023/09/10 07:47:16;;;;;;;8.18;7.50;;;;;;;27.48;50.59;97474.06;4900633;28;20248;-83
2023/09/10 07:49:41;;;;;;;8.05;7.25;;;;;;;27.78;50.03;97477.78;4919635;28;20163;-84
2023/09/10 07:52:07;;;;;;;7.28;6.68;;;;;;;27.91;49.87;97465.03;4920272;28;20710;-84
2023/09/10 07:54:35;;;;;;;8.52;7.85;;;;;;;27.95;50.15;97462.47;4916296;28;20280;-84
2023/09/10 07:57:01;;;;;;;8.00;7.30;;;;;;;28.29;48.82;97486.84;4897315;28;20335;-84
2023/09/10 07:59:26;;;;;;;7.88;7.18;;;;;;;28.44;48.04;97480.63;4913792;28;20469;-84
2023/09/10 08:01:52;;;;;;;7.32;6.72;;;;;;;28.62;48.44;97472.16;4914518;28;20209;-84
2023/09/10 08:04:17;;;;;;;7.63;7.03;;;;;;;28.91;48.42;97479.56;4914852;28;20242;-84
2023/09/10 08:06:43;;;;;;;7.90;7.10;;;;;;;29.09;47.21;97487.13;4919514;28;20183;-84
2023/09/10 08:09:09;;;;;;;7.10;6.45;;;;;;;29.27;46.18;97492.78;4921303;28;20195;-84
2023/09/10 08:11:35;;;;;;;7.07;6.50;;;;;;;29.31;44.81;97485.56;4918473;28;20184;-84
2023/09/10 08:14:00;;;;;;;7.57;6.88;;;;;;;29.50;45.79;97484.69;4918432;28;20193;-84
2023/09/10 08:16:25;;;;;;;7.47;6.88;;;;;;;29.70;46.02;97494.19;4919509;28;20330;-84
2023/09/10 08:18:51;;;;;;;7.20;6.60;;;;;;;29.69;45.28;97487.25;4893758;28;20322;-84
2023/09/10 08:21:20;;;;;;;7.75;7.03;;;;;;;29.68;44.11;97483.03;4919513;28;20614;-85
2023/09/10 08:23:47;;;;;;;7.50;6.80;;;;;;;29.85;44.91;97489.03;4938373;28;20323;-85
2023/09/10 08:26:13;;;;;;;7.50;6.90;;;;;;;29.90;44.56;97479.88;4936135;28;20153;-85
2023/09/10 08:28:38;;;;;;;7.40;6.80;;;;;;;30.08;43.78;97486.25;4948008;28;20170;-86
2023/09/10 08:31:04;;;;;;;6.97;6.38;;;;;;;30.25;42.58;97485.69;4916200;28;20181;-86
2023/09/10 08:33:29;;;;;;;8.15;6.65;;;;;;;30.25;42.84;97488.38;4921556;28;20174;-85
2023/09/10 08:35:55;;;;;;;6.95;6.35;;;;;;;30.59;42.01;97492.97;4918832;28;20682;-86
2023/09/10 08:38:22;;;;;;;7.13;6.53;;;;;;;30.83;42.24;97485.50;4931239;28;20245;-86
2023/09/10 08:40:50;;;;;;;7.43;6.75;;;;;;;30.91;41.22;97493.25;4915472;28;20338;-86
2023/09/10 08:43:18;;;;;;;6.97;6.43;;;;;;;31.02;41.78;97489.91;4950716;28;20198;-86
2023/09/10 08:45:43;;;;;;;7.68;6.97;;;;;;;31.12;40.72;97497.28;4950659;28;20244;-86
2023/09/10 08:48:10;;;;;;;7.10;6.60;;;;;;;31.41;40.43;97497.50;4936671;28;20204;-86
2023/09/10 08:50:36;;;;;;;7.05;6.50;;;;;;;31.61;40.28;97487.28;4951780;28;20166;-87
2023/09/10 08:53:05;;;;;;;7.35;6.85;;;;;;;31.53;40.60;97489.94;4894098;28;20294;-87
2023/09/10 08:55:31;;;;;;;7.63;6.93;;;;;;;31.41;39.88;97473.28;4933465;28;20241;-87
2023/09/10 08:57:57;;;;;;;7.05;6.40;;;;;;;31.49;40.21;97470.25;4915450;28;20213;-86
2023/09/10 09:00:23;;;;;;;7.50;6.80;;;;;;;31.86;40.55;97493.56;4938804;28;20150;-87
2023/09/10 09:02:49;;;;;;;6.75;6.15;;;;;;;31.89;39.83;97470.47;4908390;28;20375;-87
2023/09/10 09:05:15;;;;;;;7.85;6.93;;;;;;;32.01;38.77;97477.44;4915876;28;20099;-86
2023/09/10 09:07:46;;;;;;;7.07;6.30;;;;;;;32.22;38.67;97485.66;4922241;28;20275;-87
2023/09/10 09:10:14;;;;;;;7.82;7.07;;;;;;;32.19;38.28;97474.88;4914963;28;20133;-87
2023/09/10 09:12:40;;;;;;;7.60;6.90;;;;;;;32.16;38.34;97475.63;5234748;22;20016;-87
2023/09/10 09:17:41;;;;;;;7.30;6.60;;;;;;;32.21;37.95;97486.78;4961214;28;20331;-87
2023/09/10 09:20:11;;;;;;;7.28;6.57;;;;;;;32.31;38.42;97477.19;4988791;23;20394;-88
2023/09/10 09:22:42;;;;;;;6.85;6.25;;;;;;;32.42;37.53;97479.91;5012763;23;20042;-86
2023/09/10 09:25:07;;;;;;;7.05;6.22;;;;;;;32.53;36.64;97483.41;4932621;28;20014;-87
2023/09/10 09:27:34;;;;;;;7.53;6.22;;;;;;;32.66;36.63;97465.75;5049532;23;20152;-87
2023/09/10 09:32:36;;;;;;;6.82;6.18;;;;;;;33.00;35.83;97484.25;5545372;22;20020;-87
2023/09/10 09:35:08;;;;;;;6.60;6.10;;;;;;;33.15;35.76;97478.88;5166085;23;20307;-86
2023/09/10 09:37:35;;;;;;;9.70;6.72;;;;;;;33.28;35.83;97471.94;4934924;28;20253;-87
2023/09/10 09:40:03;;;;;;;6.63;6.00;;;;;;;33.11;35.22;97459.19;4931593;28;20206;-88
2023/09/10 09:42:29;;;;;;;7.10;6.25;;;;;;;33.21;36.40;97470.00;4908333;28;20282;-87
2023/09/10 09:44:55;;;;;;;6.90;5.82;;;;;;;33.25;35.27;97456.50;4902002;28;20580;-87
2023/09/10 09:47:20;;;;;;;10.93;6.03;;;;;;;33.40;34.80;97457.25;4940422;28;20251;-86
2023/09/10 09:49:50;;;;;;;6.93;5.80;;;;;;;33.61;35.53;97452.97;4918985;28;20648;-86
2023/09/10 09:52:17;;;;;;;9.70;5.95;;;;;;;33.51;35.80;97455.28;4934262;28;20733;-88
2023/09/10 09:54:45;;;;;;;8.32;6.45;;;;;;;33.63;35.12;97459.50;4926298;28;20177;-86
2023/09/10 09:57:10;;;;;;;8.82;6.55;;;;;;;33.57;34.63;97450.25;4931627;28;20211;-87
2023/09/10 09:59:36;;;;;;;8.57;5.75;;;;;;;33.60;34.54;97446.78;4953158;28;20323;-87
2023/09/10 10:02:03;;;;;;;7.20;6.50;;;;;;;33.84;35.13;97458.66;4939360;28;20619;-87
2023/09/10 10:04:31;;;;;;;8.07;6.43;;;;;;;33.75;34.93;97444.84;4913644;28;20721;-87
2023/09/10 10:06:56;;;;;;;8.75;5.70;;;;;;;33.98;33.49;97441.63;4939009;28;20183;-87
2023/09/10 10:09:22;;;;;;;9.68;6.50;;;;;;;34.09;31.70;97457.81;4913685;28;20704;-85
2023/09/10 10:11:48;;;;;;;7.47;5.53;;;;;;;34.29;31.27;97434.56;4924770;28;20041;-86
2023/09/10 10:14:15;;;;;;;12.13;5.95;;;;;;;33.91;34.21;97426.25;4937780;28;20219;-86
2023/09/10 10:16:41;;;;;;;14.13;6.45;;;;;;;33.57;32.46;97452.94;5064768;23;20301;-87
2023/09/10 10:21:43;;;;;;;8.68;5.25;;;;;;;33.97;31.88;97429.31;5010732;22;20232;-86
2023/09/10 10:24:09;;;;;;;14.68;5.75;;;;;;;33.67;33.43;97414.38;5054248;23;20212;-85
2023/09/10 10:26:34;;;;;;;7.32;5.97;;;;;;;33.73;32.78;97415.50;4928442;28;20366;-85
2023/09/10 10:34:30;;;;;;;7.38;5.20;;;;;;;34.29;31.85;97431.06;5192329;23;20206;-86
2023/09/10 10:37:03;;;;;;;17.73;6.28;;;;;;;34.28;32.72;97411.38;5093072;23;20204;-84
2023/09/10 10:39:44;;;;;;;8.30;5.82;;;;;;;34.52;31.93;97423.19;4957195;28;20328;-87
2023/09/10 10:42:12;;;;;;;9.80;6.05;;;;;;;34.49;32.38;97421.28;4926893;28;20222;-87
2023/09/10 10:44:38;;;;;;;11.27;5.65;;;;;;;34.25;32.13;97406.75;4941156;28;20245;-86
2023/09/10 10:47:19;;;;;;;10.07;6.20;;;;;;;34.37;32.24;97424.44;4938903;28;20255;-85
2023/09/10 10:49:53;;;;;;;8.70;5.60;;;;;;;34.46;30.61;97421.31;4944775;23;20202;-85
2023/09/10 10:52:23;;;;;;;13.52;5.75;;;;;;;34.82;31.12;97407.53;5005324;23;20289;-86
2023/09/10 10:54:50;;;;;;;10.50;6.50;;;;;;;34.56;30.09;97406.94;4868197;28;20307;-86
2023/09/10 10:57:16;;;;;;;9.05;5.55;;;;;;;34.95;31.02;97408.56;4882462;28;20276;-86
2023/09/10 11:02:21;;;;;;;8.20;6.03;;;;;;;35.25;30.19;97409.84;5754896;23;21230;-86
2023/09/10 11:07:23;;;;;;;12.85;5.97;;;;;;;35.60;29.98;97408.69;5120411;22;20224;-86
2023/09/10 11:15:00;;;;;;;;;;;;;;;36.54;26.29;97397.34;5327095;22;20185;-85
2023/09/10 11:17:32;;;;;;;8.50;5.45;;;;;;;36.21;27.58;97401.75;4922696;28;20592;-86
2023/09/10 11:19:59;;;;;;;9.90;5.47;;;;;;;36.37;27.67;97388.31;5129350;23;20159;-86
2023/09/10 11:25:02;;;;;;;10.02;6.00;;;;;;;36.22;27.08;97383.53;5013086;22;20231;-85
2023/09/10 11:27:27;;;;;;;9.65;5.45;;;;;;;36.16;28.57;97389.38;5300156;23;20194;-87
2023/09/10 11:30:06;;;;;;;8.20;5.60;;;;;;;36.17;29.54;97395.56;4881048;28;20263;-86
2023/09/10 11:32:31;;;;;;;9.82;6.10;;;;;;;35.81;28.42;97366.25;4918417;23;20229;-86
2023/09/10 11:35:19;;;;;;;9.82;6.47;;;;;;;35.71;28.65;97391.53;4916294;28;20197;-85
2023/09/10 11:37:48;;;;;;;10.40;6.40;;;;;;;35.70;28.76;97398.13;4943052;28;21178;-86
2023/09/10 11:40:17;;;;;;;10.60;6.43;;;;;;;35.85;28.87;97396.81;4953957;23;20187;-86
2023/09/10 11:42:44;;;;;;;9.10;6.53;;;;;;;35.25;29.72;97397.09;4910743;28;20607;-86
2023/09/10 11:45:10;;;;;;;10.60;6.60;;;;;;;35.46;30.35;97403.44;4919443;28;20194;-85
2023/09/10 11:47:35;;;;;;;9.35;6.30;;;;;;;35.02;29.51;97399.63;4904720;28;20174;-84
2023/09/10 11:50:03;;;;;;;9.15;6.00;;;;;;;34.65;28.51;97391.03;4897786;28;20278;-86
2023/09/10 11:52:30;;;;;;;8.15;6.15;;;;;;;34.50;30.71;97395.03;4898085;28;20197;-86
2023/09/10 11:54:57;;;;;;;7.13;6.15;;;;;;;34.19;30.75;97384.00;4912868;28;20026;-86